createdAt,value
2023-02-23T00:01:39.644Z,20.58
2023-02-23T00:04:07.247Z,21.02
2023-02-23T00:06:36.683Z,20.05
2023-02-23T00:09:10.784Z,21.30
2023-02-23T00:11:39.749Z,21.20
2023-02-23T00:14:08.298Z,21.52
2023-02-23T00:16:37.483Z,20.70
2023-02-23T00:19:08.034Z,20.80
2023-02-23T00:21:36.091Z,22.52
2023-02-23T00:24:04.846Z,21.65
2023-02-23T00:26:35.197Z,22.27
2023-02-23T00:29:06.444Z,21.63
2023-02-23T00:31:35.073Z,23.95
2023-02-23T00:34:04.511Z,25.38
2023-02-23T00:36:33.375Z,22.13
2023-02-23T00:39:03.809Z,23.23
2023-02-23T00:41:31.412Z,20.98
2023-02-23T00:44:00.619Z,20.52
2023-02-23T00:46:31.009Z,20.58
2023-02-23T00:49:00.210Z,20.17
2023-02-23T00:51:30.930Z,20.20
2023-02-23T00:53:59.456Z,21.92
2023-02-23T00:56:28.324Z,21.48
2023-02-23T00:58:56.551Z,21.20
2023-02-23T01:01:25.007Z,20.98
2023-02-23T01:03:54.190Z,21.65
2023-02-23T01:06:21.838Z,21.35
2023-02-23T01:08:52.090Z,22.42
2023-02-23T01:11:22.722Z,20.45
2023-02-23T01:13:53.010Z,21.70
2023-02-23T01:16:23.086Z,21.40
2023-02-23T01:18:50.666Z,20.80
2023-02-23T01:21:21.136Z,22.35
2023-02-23T01:23:48.917Z,22.17
2023-02-23T01:26:19.096Z,21.90
2023-02-23T01:28:50.082Z,21.48
2023-02-23T01:31:18.279Z,22.02
2023-02-23T01:33:46.398Z,22.08
2023-02-23T01:36:14.147Z,21.80
2023-02-23T01:38:43.135Z,21.90
2023-02-23T01:41:10.933Z,22.55
2023-02-23T01:43:57.122Z,21.65
2023-02-23T01:46:24.875Z,22.25
2023-02-23T01:48:53.091Z,22.33
2023-02-23T01:51:22.825Z,20.88
2023-02-23T01:53:55.497Z,20.33
2023-02-23T01:56:25.842Z,22.00
2023-02-23T01:58:54.640Z,22.20
2023-02-23T02:01:23.275Z,22.20
2023-02-23T02:03:53.217Z,20.70
2023-02-23T02:06:23.516Z,22.23
2023-02-23T02:08:55.218Z,21.58
2023-02-23T02:11:36.159Z,21.67
2023-02-23T02:14:12.711Z,21.75
2023-02-23T02:17:02.235Z,22.73
2023-02-23T02:20:14.988Z,20.92
2023-02-23T02:22:54.176Z,22.23
2023-02-23T02:25:38.325Z,21.80
2023-02-23T02:28:29.627Z,22.45
2023-02-23T02:31:17.904Z,21.70
2023-02-23T02:34:15.921Z,21.25
2023-02-23T02:37:02.450Z,23.40
2023-02-23T02:39:38.077Z,24.15
2023-02-23T02:42:12.694Z,22.70
2023-02-23T02:44:44.177Z,22.20
2023-02-23T02:47:14.336Z,22.55
2023-02-23T02:49:47.070Z,22.75
2023-02-23T02:52:20.367Z,21.73
2023-02-23T02:54:53.194Z,20.05
2023-02-23T02:57:21.531Z,19.52
2023-02-23T03:00:08.344Z,18.63
2023-02-23T03:02:55.841Z,21.08
2023-02-23T03:05:44.135Z,20.23
2023-02-23T03:08:38.291Z,22.90
2023-02-23T03:11:25.042Z,23.33
2023-02-23T03:14:21.491Z,21.13
2023-02-23T03:17:11.819Z,21.35
2023-02-23T03:20:06.861Z,20.35
2023-02-23T03:22:57.422Z,20.55
2023-02-23T03:25:48.063Z,22.25
2023-02-23T03:28:35.350Z,22.48
2023-02-23T03:31:26.029Z,21.08
2023-02-23T03:34:18.680Z,20.90
2023-02-23T03:37:06.612Z,20.73
2023-02-23T03:39:55.493Z,22.50
2023-02-23T03:42:46.707Z,22.67
2023-02-23T03:45:35.728Z,21.30
2023-02-23T03:48:22.230Z,22.77
2023-02-23T03:51:11.133Z,23.17
2023-02-23T03:54:00.687Z,22.67
2023-02-23T03:56:47.120Z,22.48
2023-02-23T03:59:36.112Z,22.38
2023-02-23T04:02:21.893Z,22.02
2023-02-23T04:05:07.795Z,19.98
2023-02-23T04:07:53.637Z,20.52
2023-02-23T04:10:39.061Z,22.45
2023-02-23T04:13:14.753Z,21.17
2023-02-23T04:15:47.295Z,22.67
2023-02-23T04:18:17.000Z,20.95
2023-02-23T04:20:44.699Z,22.10
2023-02-23T04:23:12.510Z,21.13
2023-02-23T04:25:40.246Z,22.58
2023-02-23T04:28:07.852Z,22.92
2023-02-23T04:30:35.490Z,22.02
2023-02-23T04:33:04.520Z,21.25
2023-02-23T04:35:32.155Z,22.02
2023-02-23T04:37:59.851Z,21.35
2023-02-23T04:40:28.330Z,22.60
2023-02-23T04:42:56.481Z,20.75
2023-02-23T04:45:24.851Z,21.35
2023-02-23T04:47:52.961Z,20.98
2023-02-23T04:50:22.152Z,22.52
2023-02-23T04:52:50.288Z,20.92
2023-02-23T04:55:19.785Z,21.70
2023-02-23T04:57:48.250Z,21.42
2023-02-23T05:00:16.695Z,21.80
2023-02-23T05:02:44.831Z,21.73
2023-02-23T05:05:13.074Z,21.85
2023-02-23T05:07:42.059Z,21.92
2023-02-23T05:10:11.304Z,22.23
2023-02-23T05:12:38.925Z,23.23
2023-02-23T05:15:07.774Z,23.65
2023-02-23T05:17:35.397Z,23.30
2023-02-23T05:20:03.018Z,23.60
2023-02-23T05:22:30.591Z,21.33
2023-02-23T05:24:59.509Z,24.17
2023-02-23T05:27:27.149Z,23.35
2023-02-23T05:29:54.753Z,23.70
2023-02-23T05:32:22.425Z,21.70
2023-02-23T05:34:49.994Z,23.90
2023-02-23T05:37:18.034Z,21.75
2023-02-23T05:39:45.624Z,23.92
2023-02-23T05:42:14.542Z,22.70
2023-02-23T05:44:42.088Z,22.25
2023-02-23T05:47:10.768Z,23.33
2023-02-23T05:49:38.513Z,22.80
2023-02-23T05:52:06.204Z,23.45
2023-02-23T05:54:33.890Z,23.20
2023-02-23T05:57:01.954Z,23.35
2023-02-23T05:59:31.165Z,23.73
2023-02-23T06:05:43.913Z,22.17
2023-02-23T06:08:12.097Z,22.15
2023-02-23T06:10:39.700Z,21.98
2023-02-23T06:13:07.285Z,21.77
2023-02-23T06:15:37.370Z,22.70
2023-02-23T06:18:05.222Z,21.17
2023-02-23T06:20:32.898Z,21.83
2023-02-23T06:23:00.483Z,19.98
2023-02-23T06:25:28.074Z,20.23
2023-02-23T06:27:55.738Z,18.90
2023-02-23T06:30:23.738Z,20.55
2023-02-23T06:32:52.878Z,19.15
2023-02-23T06:35:20.635Z,20.10
2023-02-23T06:37:48.237Z,19.92
2023-02-23T06:40:16.039Z,19.48
2023-02-23T06:42:43.599Z,20.42
2023-02-23T06:45:13.270Z,20.80
2023-02-23T06:47:41.047Z,20.67
2023-02-23T06:50:11.701Z,23.63
2023-02-23T06:52:39.337Z,22.52
2023-02-23T06:55:08.567Z,20.85
2023-02-23T06:57:36.216Z,21.42
2023-02-23T07:00:04.638Z,21.02
2023-02-23T07:02:32.375Z,23.98
2023-02-23T07:04:59.956Z,20.60
2023-02-23T07:07:28.992Z,21.45
2023-02-23T07:09:56.573Z,19.63
2023-02-23T07:12:24.164Z,21.20
2023-02-23T07:14:51.841Z,21.20
2023-02-23T07:17:19.679Z,22.50
2023-02-23T07:19:47.257Z,20.27
2023-02-23T07:22:14.953Z,21.08
2023-02-23T07:24:43.872Z,22.58
2023-02-23T07:27:11.484Z,23.08
2023-02-23T07:29:39.110Z,22.45
2023-02-23T07:32:07.025Z,23.50
2023-02-23T07:34:34.709Z,23.20
2023-02-23T07:37:02.311Z,25.13
2023-02-23T07:39:31.039Z,24.33
2023-02-23T07:42:00.067Z,24.83
2023-02-23T07:44:27.718Z,25.30
2023-02-23T07:46:55.352Z,26.40
2023-02-23T07:49:22.959Z,23.67
2023-02-23T07:51:50.562Z,25.98
2023-02-23T07:54:18.228Z,23.77
2023-02-23T07:56:45.874Z,24.15
2023-02-23T07:59:15.311Z,23.65
2023-02-23T08:01:42.909Z,24.80
2023-02-23T08:04:10.524Z,22.70
2023-02-23T08:06:38.190Z,21.52
2023-02-23T08:09:06.440Z,23.23
2023-02-23T08:11:34.053Z,23.48
2023-02-23T08:14:01.718Z,23.63
2023-02-23T08:16:32.242Z,23.38
2023-02-23T08:19:00.811Z,23.88
2023-02-23T08:21:30.014Z,25.05
2023-02-23T08:23:58.074Z,24.23
2023-02-23T08:26:26.027Z,24.40
2023-02-23T08:28:53.735Z,23.42
2023-02-23T08:31:24.441Z,23.88
2023-02-23T08:33:54.657Z,21.87
2023-02-23T08:36:22.881Z,21.88
2023-02-23T08:38:50.686Z,19.83
2023-02-23T08:41:18.894Z,20.00
2023-02-23T08:43:46.630Z,20.05
2023-02-23T08:46:14.805Z,21.73
2023-02-23T08:48:42.451Z,21.35
2023-02-23T08:51:11.367Z,19.60
2023-02-23T08:53:38.968Z,20.60
2023-02-23T08:56:07.849Z,19.25
2023-02-23T08:58:36.301Z,18.45
2023-02-23T09:01:04.609Z,20.45
2023-02-23T09:03:32.947Z,18.73
2023-02-23T09:06:07.881Z,19.33
2023-02-23T09:08:36.974Z,20.40
2023-02-23T09:11:04.685Z,19.90
2023-02-23T09:13:32.389Z,23.40
2023-02-23T09:16:00.194Z,22.83
2023-02-23T09:18:29.520Z,19.45
2023-02-23T09:20:57.447Z,19.98
2023-02-23T09:23:25.649Z,20.65
2023-02-23T09:25:54.622Z,20.42
2023-02-23T09:28:22.241Z,19.48
2023-02-23T09:30:49.875Z,24.38
2023-02-23T09:33:18.195Z,23.55
2023-02-23T09:35:45.816Z,35.60
2023-02-23T09:38:13.385Z,22.08
2023-02-23T09:40:47.359Z,22.23
2023-02-23T09:43:21.115Z,19.80
2023-02-23T09:45:50.751Z,21.02
2023-02-23T09:48:20.606Z,20.40
2023-02-23T09:50:50.528Z,21.08
2023-02-23T09:53:29.712Z,20.52
2023-02-23T09:55:58.419Z,19.90
2023-02-23T09:58:28.857Z,20.48
2023-02-23T10:01:20.994Z,20.00
2023-02-23T10:03:53.545Z,20.15
2023-02-23T10:06:21.756Z,21.65
2023-02-23T10:08:55.931Z,20.05
2023-02-23T10:11:27.143Z,20.10
2023-02-23T10:14:09.876Z,20.50
2023-02-23T10:16:45.567Z,19.48
2023-02-23T10:19:16.762Z,19.02
2023-02-23T10:21:56.382Z,18.08
2023-02-23T10:24:27.299Z,17.10
2023-02-23T10:26:56.807Z,18.23
2023-02-23T10:29:28.533Z,19.58
2023-02-23T10:31:58.931Z,18.65
2023-02-23T10:34:28.945Z,18.08
2023-02-23T10:37:00.543Z,16.58
2023-02-23T10:39:28.876Z,17.40
2023-02-23T10:41:58.035Z,17.98
2023-02-23T10:44:28.565Z,17.00
2023-02-23T10:46:58.066Z,18.42
2023-02-23T10:49:30.342Z,17.83
2023-02-23T10:52:02.829Z,17.27
2023-02-23T10:54:45.682Z,17.15
2023-02-23T10:57:20.588Z,17.83
2023-02-23T11:00:04.130Z,14.57
2023-02-23T11:02:31.942Z,13.98
2023-02-23T11:05:01.087Z,13.70
2023-02-23T11:07:31.145Z,13.80
2023-02-23T11:09:59.403Z,12.45
2023-02-23T11:12:29.612Z,12.35
2023-02-23T11:14:59.996Z,13.10
2023-02-23T11:17:30.776Z,12.30
2023-02-23T11:20:04.359Z,11.63
2023-02-23T11:22:33.760Z,11.88
2023-02-23T11:25:06.767Z,12.70
2023-02-23T11:27:34.903Z,12.23
2023-02-23T11:30:07.240Z,11.60
2023-02-23T11:32:43.171Z,9.90
2023-02-23T11:35:28.488Z,9.63
2023-02-23T11:37:56.514Z,10.13
2023-02-23T11:40:27.169Z,9.77
2023-02-23T11:42:56.868Z,9.90
2023-02-23T11:45:27.938Z,9.57
2023-02-23T11:47:58.677Z,9.75
2023-02-23T11:50:28.795Z,9.80
2023-02-23T11:53:03.328Z,9.48
2023-02-23T11:55:32.931Z,10.52
2023-02-23T11:58:11.882Z,9.63
2023-02-23T12:00:41.356Z,9.25
2023-02-23T12:03:13.871Z,9.30
2023-02-23T12:05:41.532Z,9.82
2023-02-23T12:08:14.328Z,9.95
2023-02-23T12:10:43.658Z,9.57
2023-02-23T12:13:25.919Z,9.65
2023-02-23T12:15:58.852Z,9.75
2023-02-23T12:18:40.253Z,9.60
2023-02-23T12:21:16.942Z,9.87
2023-02-23T12:23:49.946Z,9.25
2023-02-23T12:26:22.716Z,8.65
2023-02-23T12:28:54.020Z,8.60
2023-02-23T12:31:28.313Z,10.47
2023-02-23T12:33:59.013Z,9.00
2023-02-23T12:36:31.390Z,9.55
2023-02-23T12:39:02.119Z,9.23
2023-02-23T12:41:36.560Z,9.40
2023-02-23T12:44:13.356Z,9.55
2023-02-23T12:46:47.553Z,9.85
2023-02-23T12:49:20.402Z,10.00
2023-02-23T12:51:52.648Z,9.65
2023-02-23T12:57:08.985Z,9.80
2023-02-23T13:00:00.662Z,9.00
2023-02-23T13:02:31.276Z,8.67
2023-02-23T13:05:06.866Z,9.55
2023-02-23T13:07:42.722Z,9.90
2023-02-23T13:10:19.976Z,9.70
2023-02-23T13:12:55.912Z,10.32
2023-02-23T13:15:28.086Z,10.02
2023-02-23T13:20:33.705Z,10.30
2023-02-23T13:23:10.835Z,9.77
2023-02-23T13:25:44.524Z,9.95
2023-02-23T13:28:19.168Z,10.00
2023-02-23T13:30:47.706Z,10.57
2023-02-23T13:33:34.958Z,10.10
2023-02-23T13:36:06.705Z,10.27
2023-02-23T13:38:42.136Z,10.15
2023-02-23T13:41:19.235Z,10.50
2023-02-23T13:43:52.205Z,10.10
2023-02-23T13:46:25.760Z,9.40
2023-02-23T13:49:01.758Z,9.57
2023-02-23T13:51:36.236Z,10.18
2023-02-23T13:54:07.762Z,9.52
2023-02-23T13:56:42.315Z,9.50
2023-02-23T13:59:22.649Z,9.68
2023-02-23T14:01:53.209Z,10.20
2023-02-23T14:04:25.436Z,10.13
2023-02-23T14:09:29.206Z,10.10
2023-02-23T14:12:03.354Z,10.43
2023-02-23T14:14:43.264Z,10.32
2023-02-23T14:17:50.530Z,9.88
2023-02-23T14:20:45.590Z,9.20
2023-02-23T14:23:50.182Z,9.50
2023-02-23T14:26:34.160Z,10.93
2023-02-23T14:29:22.094Z,10.68
2023-02-23T14:32:01.471Z,10.23
2023-02-23T14:34:48.214Z,10.57
2023-02-23T14:37:21.947Z,10.52
2023-02-23T14:39:51.621Z,10.30
2023-02-23T14:42:23.203Z,11.82
2023-02-23T14:44:52.591Z,9.88
2023-02-23T14:47:22.300Z,10.32
2023-02-23T14:49:52.021Z,10.20
2023-02-23T14:52:24.546Z,10.50
2023-02-23T14:54:52.962Z,10.38
2023-02-23T14:57:22.658Z,10.60
2023-02-23T14:59:55.569Z,10.18
2023-02-23T15:02:25.118Z,11.05
2023-02-23T15:04:52.841Z,10.88
2023-02-23T15:07:28.000Z,11.20
2023-02-23T15:09:57.300Z,11.63
2023-02-23T15:12:28.450Z,11.55
2023-02-23T15:14:58.606Z,11.07
2023-02-23T15:17:27.855Z,10.85
2023-02-23T15:20:09.586Z,11.10
2023-02-23T15:22:44.309Z,11.48
2023-02-23T15:25:16.267Z,11.32
2023-02-23T15:27:45.714Z,10.90
2023-02-23T15:30:27.662Z,11.18
2023-02-23T15:33:03.446Z,10.63
2023-02-23T15:35:31.697Z,10.77
2023-02-23T15:38:13.719Z,10.60
2023-02-23T15:40:42.157Z,10.60
2023-02-23T15:43:10.293Z,11.15
2023-02-23T15:45:42.681Z,10.98
2023-02-23T15:48:17.198Z,10.90
2023-02-23T15:50:50.173Z,10.85
2023-02-23T15:53:25.522Z,12.13
2023-02-23T15:56:00.717Z,10.20
2023-02-23T15:58:30.898Z,11.15
2023-02-23T16:00:59.937Z,11.77
2023-02-23T16:03:31.657Z,10.82
2023-02-23T16:06:05.374Z,11.55
2023-02-23T16:08:36.874Z,11.23
2023-02-23T16:11:11.937Z,12.02
2023-02-23T16:13:43.926Z,11.45
2023-02-23T16:16:19.046Z,10.82
2023-02-23T16:18:49.102Z,11.45
2023-02-23T16:21:19.000Z,9.65
2023-02-23T16:23:49.314Z,10.95
2023-02-23T16:26:24.231Z,10.32
2023-02-23T16:28:57.548Z,10.18
2023-02-23T16:31:28.175Z,10.43
2023-02-23T16:33:59.836Z,9.88
2023-02-23T16:36:37.848Z,11.27
2023-02-23T16:39:11.386Z,9.63
2023-02-23T16:41:39.188Z,10.82
2023-02-23T16:44:08.589Z,10.65
2023-02-23T16:46:57.062Z,10.80
2023-02-23T16:49:24.644Z,11.38
2023-02-23T16:51:52.582Z,10.88
2023-02-23T16:54:21.526Z,11.60
2023-02-23T16:56:49.429Z,12.18
2023-02-23T16:59:18.820Z,11.68
2023-02-23T17:01:47.204Z,12.52
2023-02-23T17:04:16.275Z,12.57
2023-02-23T17:06:44.450Z,13.02
2023-02-23T17:09:13.020Z,12.23
2023-02-23T17:11:42.312Z,13.80
2023-02-23T17:14:11.825Z,13.90
2023-02-23T17:16:39.485Z,13.13
2023-02-23T17:19:07.273Z,13.48
2023-02-23T17:21:34.858Z,14.45
2023-02-23T17:24:03.738Z,12.57
2023-02-23T17:26:31.398Z,12.98
2023-02-23T17:29:00.734Z,14.07
2023-02-23T17:31:28.880Z,13.27
2023-02-23T17:33:57.980Z,16.35
2023-02-23T17:36:27.459Z,14.77
2023-02-23T17:38:58.623Z,13.07
2023-02-23T17:41:27.090Z,13.43
2023-02-23T17:43:54.885Z,13.13
2023-02-23T17:46:24.852Z,14.23
2023-02-23T17:48:55.996Z,15.02
2023-02-23T17:51:24.020Z,13.63
2023-02-23T17:53:51.697Z,13.25
2023-02-23T17:56:20.205Z,14.38
2023-02-23T17:58:48.436Z,14.88
2023-02-23T18:01:16.276Z,13.07
2023-02-23T18:03:45.315Z,14.20
2023-02-23T18:06:14.115Z,14.32
2023-02-23T18:08:43.018Z,14.70
2023-02-23T18:11:11.073Z,14.43
2023-02-23T18:13:39.147Z,13.80
2023-02-23T18:16:09.343Z,12.85
2023-02-23T18:18:37.304Z,13.98
2023-02-23T18:21:12.328Z,15.35
2023-02-23T18:23:39.994Z,16.98
2023-02-23T18:26:09.077Z,16.77
2023-02-23T18:28:38.654Z,15.23
2023-02-23T18:31:06.625Z,14.75
2023-02-23T18:33:35.871Z,15.00
2023-02-23T18:36:04.131Z,14.35
2023-02-23T18:38:33.133Z,11.77
2023-02-23T18:41:00.738Z,12.13
2023-02-23T18:43:28.346Z,12.68
2023-02-23T18:45:56.089Z,12.57
2023-02-23T18:48:23.705Z,12.88
2023-02-23T18:50:56.575Z,13.65
2023-02-23T18:53:24.185Z,12.82
2023-02-23T18:55:53.134Z,13.75
2023-02-23T18:58:20.801Z,13.35
2023-02-23T19:00:48.422Z,15.30
2023-02-23T19:03:16.122Z,19.98
2023-02-23T19:05:52.991Z,21.77
2023-02-23T19:08:20.875Z,20.50
2023-02-23T19:10:48.631Z,19.75
2023-02-23T19:13:21.943Z,19.05
2023-02-23T19:15:50.236Z,19.90
2023-02-23T19:18:17.862Z,20.00
2023-02-23T19:20:45.487Z,19.45
2023-02-23T19:23:13.444Z,19.90
2023-02-23T19:25:41.181Z,17.80
2023-02-23T19:28:09.794Z,17.20
2023-02-23T19:30:39.803Z,17.30
2023-02-23T19:33:08.136Z,17.20
2023-02-23T19:35:35.848Z,16.58
2023-02-23T19:38:03.842Z,21.30
2023-02-23T19:40:31.499Z,17.25
2023-02-23T19:42:59.110Z,15.55
2023-02-23T19:45:26.817Z,18.70
2023-02-23T19:47:56.172Z,22.30
2023-02-23T19:50:23.786Z,17.45
2023-02-23T19:52:51.415Z,18.40
2023-02-23T19:55:20.464Z,21.85
2023-02-23T19:57:48.122Z,21.52
2023-02-23T20:00:16.445Z,18.83
2023-02-23T20:02:44.134Z,18.90
2023-02-23T20:05:14.577Z,18.77
2023-02-23T20:07:42.589Z,19.80
2023-02-23T20:10:16.073Z,18.30
2023-02-23T20:12:43.886Z,17.75
2023-02-23T20:15:14.694Z,16.40
2023-02-23T20:17:42.452Z,18.35
2023-02-23T20:20:12.149Z,15.10
2023-02-23T20:22:44.676Z,14.35
2023-02-23T20:25:15.970Z,14.70
2023-02-23T20:27:44.432Z,14.27
2023-02-23T20:30:13.545Z,14.05
2023-02-23T20:32:41.535Z,14.77
2023-02-23T20:35:11.321Z,13.95
2023-02-23T20:37:38.956Z,14.05
2023-02-23T20:40:15.766Z,14.93
2023-02-23T20:42:44.501Z,13.43
2023-02-23T20:45:14.216Z,15.52
2023-02-23T20:47:42.392Z,13.88
2023-02-23T20:50:12.763Z,14.63
2023-02-23T20:52:40.549Z,14.65
2023-02-23T20:55:10.870Z,15.75
2023-02-23T20:57:38.546Z,14.98
2023-02-23T21:00:10.600Z,18.40
2023-02-23T21:02:38.953Z,17.40
2023-02-23T21:05:10.208Z,18.85
2023-02-23T21:07:38.143Z,15.10
2023-02-23T21:10:07.733Z,16.13
2023-02-23T21:12:36.781Z,15.50
2023-02-23T21:15:05.788Z,21.77
2023-02-23T21:17:33.423Z,23.15
2023-02-23T21:20:02.275Z,21.98
2023-02-23T21:22:29.862Z,24.13
2023-02-23T21:25:00.388Z,23.38
2023-02-23T21:27:28.062Z,24.10
2023-02-23T21:29:57.066Z,26.67
2023-02-23T21:32:27.069Z,30.23
2023-02-23T21:34:54.749Z,24.13
2023-02-23T21:37:22.427Z,18.88
2023-02-23T21:39:50.135Z,14.70
2023-02-23T21:42:22.981Z,14.77
2023-02-23T21:44:51.503Z,12.82
2023-02-23T21:47:20.439Z,14.77
2023-02-23T21:49:49.354Z,14.07
2023-02-23T21:52:17.318Z,13.63
2023-02-23T21:54:49.951Z,14.32
2023-02-23T21:57:17.950Z,13.90
2023-02-23T21:59:45.585Z,13.65
2023-02-23T22:02:13.791Z,17.38
2023-02-23T22:04:42.771Z,16.50
2023-02-23T22:07:10.366Z,17.13
2023-02-23T22:09:37.965Z,15.30
2023-02-23T22:12:07.626Z,15.40
2023-02-23T22:14:35.614Z,20.88
2023-02-23T22:17:06.311Z,23.48
2023-02-23T22:19:34.223Z,23.13
2023-02-23T22:22:03.234Z,27.60
2023-02-23T22:24:31.602Z,24.15
2023-02-23T22:27:00.876Z,20.38
2023-02-23T22:29:28.599Z,16.65
2023-02-23T22:31:56.314Z,14.82
2023-02-23T22:34:24.212Z,17.65
2023-02-23T22:36:51.942Z,24.15
2023-02-23T22:39:20.951Z,26.23
2023-02-23T22:41:49.108Z,23.92
2023-02-23T22:44:18.649Z,18.08
2023-02-23T22:46:47.955Z,15.48
2023-02-23T22:49:16.484Z,13.10
2023-02-23T22:51:44.793Z,13.80
2023-02-23T22:54:13.254Z,14.77
2023-02-23T22:56:42.930Z,13.73
2023-02-23T22:59:11.182Z,13.63
2023-02-23T23:01:39.944Z,12.93
2023-02-23T23:04:10.347Z,12.75
2023-02-23T23:06:39.962Z,12.90
2023-02-23T23:09:08.724Z,14.15
2023-02-23T23:11:37.309Z,14.25
2023-02-23T23:14:10.117Z,13.57
2023-02-23T23:16:40.620Z,12.98
2023-02-23T23:19:12.130Z,12.60
2023-02-23T23:21:41.511Z,13.35
2023-02-23T23:24:10.314Z,12.95
2023-02-23T23:26:39.762Z,13.27
2023-02-23T23:29:11.049Z,11.77
2023-02-23T23:31:39.555Z,11.53
2023-02-23T23:34:09.309Z,12.13
2023-02-23T23:36:42.795Z,12.45
2023-02-23T23:39:12.905Z,11.57
2023-02-23T23:41:42.974Z,11.77
2023-02-23T23:44:13.118Z,12.02
2023-02-23T23:46:43.322Z,11.57
2023-02-23T23:49:12.975Z,13.55
2023-02-23T23:51:44.787Z,13.00
2023-02-23T23:54:14.458Z,13.02
2023-02-23T23:56:43.538Z,13.80
2023-02-23T23:59:16.323Z,12.40
